FEFF

Bangui M'Poko International Airport

Bangui, Central African Republic
METAR FEFF 162100Z VRB02KT 8000 NSC 26/25 Q1013 NOSIG
Observed Flight Rules
Dec-16 @ 21:00 UTC (an hour ago) Marginal Visual Flight Rules
Wind Visibility Clouds
Variable at 2 knots 7,998 meters
  • Clear skies
Temperatures Readings
Current 26°C / 79°F
Dewpoint 25°C / 77°F
Humidity 94%
Altimeter 29.91" Hg
Pressure 1013 hPa
Elevation 366
METAR FEFF 162100Z VRB02KT 8000 NSC 26/25 Q1013 NOSIG
Observed Flight Rules
Dec-16 @ 21:00 UTC
(an hour ago)
MVFR
Wind Visibility
Variable at 2 knots 7,998 meters
Clouds
  • Clear skies
Temperature Dewpoint
26°C / 79°F 25°C / 77°F
Humidity Altimeter Pressure
94% 29.91" Hg 1013 hPa